sensor_id;sensor_type;location;lat;lon;timestamp;temperature;humidity
20045;DHT22;10183;47.808;9.476;2023-04-07T00:02:08;4.70;99.90
20045;DHT22;10183;47.808;9.476;2023-04-07T00:04:34;4.60;99.90
20045;DHT22;10183;47.808;9.476;2023-04-07T00:07:00;4.60;99.90
20045;DHT22;10183;47.808;9.476;2023-04-07T00:09:26;4.60;99.90
20045;DHT22;10183;47.808;9.476;2023-04-07T00:11:52;4.60;99.90
20045;DHT22;10183;47.808;9.476;2023-04-07T00:14:18;4.60;99.90
20045;DHT22;10183;47.808;9.476;2023-04-07T00:16:45;4.50;99.90
20045;DHT22;10183;47.808;9.476;2023-04-07T00:19:11;4.50;99.90
20045;DHT22;10183;47.808;9.476;2023-04-07T00:21:37;4.50;99.90
20045;DHT22;10183;47.808;9.476;2023-04-07T00:24:03;4.40;99.90
20045;DHT22;10183;47.808;9.476;2023-04-07T00:26:29;4.40;99.90
20045;DHT22;10183;47.808;9.476;2023-04-07T00:28:57;4.40;99.90
20045;DHT22;10183;47.808;9.476;2023-04-07T00:31:31;4.50;99.90
20045;DHT22;10183;47.808;9.476;2023-04-07T00:33:57;4.50;99.90
20045;DHT22;10183;47.808;9.476;2023-04-07T00:36:23;4.50;99.90
20045;DHT22;10183;47.808;9.476;2023-04-07T00:38:49;4.50;99.90
20045;DHT22;10183;47.808;9.476;2023-04-07T00:41:16;4.40;99.90
20045;DHT22;10183;47.808;9.476;2023-04-07T00:43:42;4.40;99.90
20045;DHT22;10183;47.808;9.476;2023-04-07T00:46:08;4.40;99.90
20045;DHT22;10183;47.808;9.476;2023-04-07T00:48:35;4.50;99.90
20045;DHT22;10183;47.808;9.476;2023-04-07T00:51:02;4.50;99.90
20045;DHT22;10183;47.808;9.476;2023-04-07T00:53:29;4.60;99.90
20045;DHT22;10183;47.808;9.476;2023-04-07T00:55:55;4.50;99.90
20045;DHT22;10183;47.808;9.476;2023-04-07T00:58:21;4.50;99.90
20045;DHT22;10183;47.808;9.476;2023-04-07T01:01:15;4.40;99.90
20045;DHT22;10183;47.808;9.476;2023-04-07T01:03:57;4.40;99.90
20045;DHT22;10183;47.808;9.476;2023-04-07T01:06:27;4.40;99.90
20045;DHT22;10183;47.808;9.476;2023-04-07T01:09:22;4.40;99.90
20045;DHT22;10183;47.808;9.476;2023-04-07T01:12:52;4.30;99.90
20045;DHT22;10183;47.808;9.476;2023-04-07T01:15:03;4.30;99.90
20045;DHT22;10183;47.808;9.476;2023-04-07T01:17:31;4.40;99.90
20045;DHT22;10183;47.808;9.476;2023-04-07T01:20:01;4.20;99.90
20045;DHT22;10183;47.808;9.476;2023-04-07T01:22:41;4.20;99.90
20045;DHT22;10183;47.808;9.476;2023-04-07T01:30:33;4.30;99.90
20045;DHT22;10183;47.808;9.476;2023-04-07T01:33:01;4.30;99.90
20045;DHT22;10183;47.808;9.476;2023-04-07T01:35:31;4.40;99.90
20045;DHT22;10183;47.808;9.476;2023-04-07T01:37:58;4.30;99.90
20045;DHT22;10183;47.808;9.476;2023-04-07T01:40:26;4.40;99.90
20045;DHT22;10183;47.808;9.476;2023-04-07T01:42:53;4.40;99.90
20045;DHT22;10183;47.808;9.476;2023-04-07T01:45:22;4.40;99.90
20045;DHT22;10183;47.808;9.476;2023-04-07T01:47:49;4.40;99.90
20045;DHT22;10183;47.808;9.476;2023-04-07T01:50:16;4.50;99.90
20045;DHT22;10183;47.808;9.476;2023-04-07T01:52:42;4.50;99.90
20045;DHT22;10183;47.808;9.476;2023-04-07T01:55:09;4.50;99.90
20045;DHT22;10183;47.808;9.476;2023-04-07T01:57:35;4.50;99.90
20045;DHT22;10183;47.808;9.476;2023-04-07T02:00:01;4.50;99.90
20045;DHT22;10183;47.808;9.476;2023-04-07T02:02:28;4.50;99.90
20045;DHT22;10183;47.808;9.476;2023-04-07T02:04:57;4.50;99.90
20045;DHT22;10183;47.808;9.476;2023-04-07T02:07:41;4.50;99.90
20045;DHT22;10183;47.808;9.476;2023-04-07T02:10:12;4.50;99.90
20045;DHT22;10183;47.808;9.476;2023-04-07T02:12:40;4.50;99.90
20045;DHT22;10183;47.808;9.476;2023-04-07T02:15:08;4.50;99.90
20045;DHT22;10183;47.808;9.476;2023-04-07T02:17:39;4.60;99.90
20045;DHT22;10183;47.808;9.476;2023-04-07T02:20:07;4.60;99.90
20045;DHT22;10183;47.808;9.476;2023-04-07T02:22:37;4.60;99.90
20045;DHT22;10183;47.808;9.476;2023-04-07T02:25:20;4.60;99.90
20045;DHT22;10183;47.808;9.476;2023-04-07T02:27:46;4.60;99.90
20045;DHT22;10183;47.808;9.476;2023-04-07T02:30:12;4.60;99.90
20045;DHT22;10183;47.808;9.476;2023-04-07T02:32:39;4.60;99.90
20045;DHT22;10183;47.808;9.476;2023-04-07T02:35:05;4.60;99.90
20045;DHT22;10183;47.808;9.476;2023-04-07T02:37:31;4.60;99.90
20045;DHT22;10183;47.808;9.476;2023-04-07T02:39:57;4.60;99.90
20045;DHT22;10183;47.808;9.476;2023-04-07T02:42:24;4.60;99.90
20045;DHT22;10183;47.808;9.476;2023-04-07T02:44:50;4.60;99.90
20045;DHT22;10183;47.808;9.476;2023-04-07T02:47:16;4.60;99.90
20045;DHT22;10183;47.808;9.476;2023-04-07T02:49:42;4.70;99.90
20045;DHT22;10183;47.808;9.476;2023-04-07T02:52:08;4.60;99.90
20045;DHT22;10183;47.808;9.476;2023-04-07T02:54:34;4.70;99.90
20045;DHT22;10183;47.808;9.476;2023-04-07T02:57:01;4.70;99.90
20045;DHT22;10183;47.808;9.476;2023-04-07T02:59:27;4.70;99.90
20045;DHT22;10183;47.808;9.476;2023-04-07T03:01:53;4.70;99.90
20045;DHT22;10183;47.808;9.476;2023-04-07T03:04:20;4.70;99.90
20045;DHT22;10183;47.808;9.476;2023-04-07T03:06:47;4.50;99.90
20045;DHT22;10183;47.808;9.476;2023-04-07T03:09:13;4.50;99.90
20045;DHT22;10183;47.808;9.476;2023-04-07T03:11:40;4.60;99.90
20045;DHT22;10183;47.808;9.476;2023-04-07T03:14:06;4.70;99.90
20045;DHT22;10183;47.808;9.476;2023-04-07T03:16:33;4.60;99.90
20045;DHT22;10183;47.808;9.476;2023-04-07T03:18:59;4.60;99.90
20045;DHT22;10183;47.808;9.476;2023-04-07T03:21:25;4.60;99.90
20045;DHT22;10183;47.808;9.476;2023-04-07T03:23:53;4.70;99.90
20045;DHT22;10183;47.808;9.476;2023-04-07T03:26:20;4.70;99.90
20045;DHT22;10183;47.808;9.476;2023-04-07T03:28:46;4.60;99.90
20045;DHT22;10183;47.808;9.476;2023-04-07T03:31:12;4.60;99.90
20045;DHT22;10183;47.808;9.476;2023-04-07T03:33:38;4.60;99.90
20045;DHT22;10183;47.808;9.476;2023-04-07T03:36:05;4.60;99.90
20045;DHT22;10183;47.808;9.476;2023-04-07T03:38:31;4.50;99.90
20045;DHT22;10183;47.808;9.476;2023-04-07T03:40:57;4.50;99.90
20045;DHT22;10183;47.808;9.476;2023-04-07T03:43:23;4.30;99.90
20045;DHT22;10183;47.808;9.476;2023-04-07T03:45:52;4.30;99.90
20045;DHT22;10183;47.808;9.476;2023-04-07T03:48:18;4.20;99.90
20045;DHT22;10183;47.808;9.476;2023-04-07T03:50:45;4.20;99.90
20045;DHT22;10183;47.808;9.476;2023-04-07T03:53:11;4.20;99.90
20045;DHT22;10183;47.808;9.476;2023-04-07T03:55:40;4.10;99.90
20045;DHT22;10183;47.808;9.476;2023-04-07T03:58:06;4.10;99.90
20045;DHT22;10183;47.808;9.476;2023-04-07T04:00:33;4.10;99.90
20045;DHT22;10183;47.808;9.476;2023-04-07T04:02:59;4.20;99.90
20045;DHT22;10183;47.808;9.476;2023-04-07T04:05:26;4.10;99.90
20045;DHT22;10183;47.808;9.476;2023-04-07T04:07:52;4.10;99.90
20045;DHT22;10183;47.808;9.476;2023-04-07T04:10:19;4.00;99.90
20045;DHT22;10183;47.808;9.476;2023-04-07T04:12:46;4.00;99.90
20045;DHT22;10183;47.808;9.476;2023-04-07T04:15:14;4.00;99.90
20045;DHT22;10183;47.808;9.476;2023-04-07T04:17:41;3.90;99.90
20045;DHT22;10183;47.808;9.476;2023-04-07T04:20:07;3.90;99.90
20045;DHT22;10183;47.808;9.476;2023-04-07T04:22:34;3.80;99.90
20045;DHT22;10183;47.808;9.476;2023-04-07T04:25:00;3.70;99.90
20045;DHT22;10183;47.808;9.476;2023-04-07T04:27:27;3.70;99.90
20045;DHT22;10183;47.808;9.476;2023-04-07T04:29:53;3.70;99.90
20045;DHT22;10183;47.808;9.476;2023-04-07T04:32:19;3.80;99.90
20045;DHT22;10183;47.808;9.476;2023-04-07T04:34:46;3.90;99.90
20045;DHT22;10183;47.808;9.476;2023-04-07T04:37:12;3.90;99.90
20045;DHT22;10183;47.808;9.476;2023-04-07T04:39:38;4.00;99.90
20045;DHT22;10183;47.808;9.476;2023-04-07T04:42:04;3.90;99.90
20045;DHT22;10183;47.808;9.476;2023-04-07T04:44:30;3.80;99.90
20045;DHT22;10183;47.808;9.476;2023-04-07T04:46:57;3.70;99.90
20045;DHT22;10183;47.808;9.476;2023-04-07T04:49:23;3.50;99.90
20045;DHT22;10183;47.808;9.476;2023-04-07T04:51:49;3.50;99.90
20045;DHT22;10183;47.808;9.476;2023-04-07T04:54:15;3.50;99.90
20045;DHT22;10183;47.808;9.476;2023-04-07T04:56:41;3.60;99.90
20045;DHT22;10183;47.808;9.476;2023-04-07T04:59:08;3.70;99.90
20045;DHT22;10183;47.808;9.476;2023-04-07T05:01:34;3.70;99.90
20045;DHT22;10183;47.808;9.476;2023-04-07T05:04:00;3.70;99.90
20045;DHT22;10183;47.808;9.476;2023-04-07T05:06:26;3.70;99.90
20045;DHT22;10183;47.808;9.476;2023-04-07T05:08:53;3.60;99.90
20045;DHT22;10183;47.808;9.476;2023-04-07T05:11:19;3.60;99.90
20045;DHT22;10183;47.808;9.476;2023-04-07T05:13:46;3.60;99.90
20045;DHT22;10183;47.808;9.476;2023-04-07T05:16:12;3.60;99.90
20045;DHT22;10183;47.808;9.476;2023-04-07T05:18:38;3.60;99.90
20045;DHT22;10183;47.808;9.476;2023-04-07T05:21:04;3.70;99.90
20045;DHT22;10183;47.808;9.476;2023-04-07T05:23:31;3.70;99.90
20045;DHT22;10183;47.808;9.476;2023-04-07T05:25:57;3.60;99.90
20045;DHT22;10183;47.808;9.476;2023-04-07T05:28:23;3.60;99.90
20045;DHT22;10183;47.808;9.476;2023-04-07T05:30:50;3.60;99.90
20045;DHT22;10183;47.808;9.476;2023-04-07T05:33:16;3.60;99.90
20045;DHT22;10183;47.808;9.476;2023-04-07T05:35:45;3.60;99.90
20045;DHT22;10183;47.808;9.476;2023-04-07T05:38:12;3.80;99.90
20045;DHT22;10183;47.808;9.476;2023-04-07T05:40:38;3.80;99.90
20045;DHT22;10183;47.808;9.476;2023-04-07T05:43:05;3.80;99.90
20045;DHT22;10183;47.808;9.476;2023-04-07T05:45:31;3.70;99.90
20045;DHT22;10183;47.808;9.476;2023-04-07T05:47:57;3.80;99.90
20045;DHT22;10183;47.808;9.476;2023-04-07T05:50:23;3.90;99.90
20045;DHT22;10183;47.808;9.476;2023-04-07T05:52:49;4.00;99.90
20045;DHT22;10183;47.808;9.476;2023-04-07T05:55:15;4.10;99.90
20045;DHT22;10183;47.808;9.476;2023-04-07T05:57:41;4.20;99.90
20045;DHT22;10183;47.808;9.476;2023-04-07T06:00:08;4.30;99.90
20045;DHT22;10183;47.808;9.476;2023-04-07T06:02:35;4.40;99.90
20045;DHT22;10183;47.808;9.476;2023-04-07T06:05:02;4.50;99.90
20045;DHT22;10183;47.808;9.476;2023-04-07T06:07:28;4.50;99.90
20045;DHT22;10183;47.808;9.476;2023-04-07T06:09:54;4.50;99.90
20045;DHT22;10183;47.808;9.476;2023-04-07T06:12:20;4.60;99.90
20045;DHT22;10183;47.808;9.476;2023-04-07T06:14:52;4.60;99.90
20045;DHT22;10183;47.808;9.476;2023-04-07T06:17:18;4.50;99.90
20045;DHT22;10183;47.808;9.476;2023-04-07T06:19:44;4.50;99.90
20045;DHT22;10183;47.808;9.476;2023-04-07T06:22:11;4.40;99.90
20045;DHT22;10183;47.808;9.476;2023-04-07T06:24:37;4.70;99.90
20045;DHT22;10183;47.808;9.476;2023-04-07T06:27:03;4.80;99.90
20045;DHT22;10183;47.808;9.476;2023-04-07T06:29:31;5.00;99.90
20045;DHT22;10183;47.808;9.476;2023-04-07T06:31:58;5.10;99.90
20045;DHT22;10183;47.808;9.476;2023-04-07T06:34:25;5.20;99.90
20045;DHT22;10183;47.808;9.476;2023-04-07T06:36:51;5.30;99.90
20045;DHT22;10183;47.808;9.476;2023-04-07T06:39:17;5.50;99.90
20045;DHT22;10183;47.808;9.476;2023-04-07T06:41:43;5.40;99.90
20045;DHT22;10183;47.808;9.476;2023-04-07T06:44:10;5.10;99.90
20045;DHT22;10183;47.808;9.476;2023-04-07T06:46:36;5.10;99.90
20045;DHT22;10183;47.808;9.476;2023-04-07T06:49:02;5.30;99.90
20045;DHT22;10183;47.808;9.476;2023-04-07T06:51:29;5.40;99.90
20045;DHT22;10183;47.808;9.476;2023-04-07T06:53:55;5.40;99.90
20045;DHT22;10183;47.808;9.476;2023-04-07T06:56:22;5.70;99.90
20045;DHT22;10183;47.808;9.476;2023-04-07T06:58:48;6.00;99.90
20045;DHT22;10183;47.808;9.476;2023-04-07T07:01:14;6.40;99.90
20045;DHT22;10183;47.808;9.476;2023-04-07T07:03:40;6.70;99.90
20045;DHT22;10183;47.808;9.476;2023-04-07T07:06:07;6.90;99.90
20045;DHT22;10183;47.808;9.476;2023-04-07T07:08:33;7.20;99.90
20045;DHT22;10183;47.808;9.476;2023-04-07T07:10:59;7.50;99.90
20045;DHT22;10183;47.808;9.476;2023-04-07T07:13:26;7.70;99.90
20045;DHT22;10183;47.808;9.476;2023-04-07T07:15:53;8.00;99.90
20045;DHT22;10183;47.808;9.476;2023-04-07T07:18:19;8.40;99.90
20045;DHT22;10183;47.808;9.476;2023-04-07T07:20:45;8.60;99.90
20045;DHT22;10183;47.808;9.476;2023-04-07T07:23:12;8.60;99.90
20045;DHT22;10183;47.808;9.476;2023-04-07T07:25:38;8.40;99.90
20045;DHT22;10183;47.808;9.476;2023-04-07T07:28:04;8.50;99.90
20045;DHT22;10183;47.808;9.476;2023-04-07T07:30:30;8.60;99.90
20045;DHT22;10183;47.808;9.476;2023-04-07T07:32:56;8.80;99.90
20045;DHT22;10183;47.808;9.476;2023-04-07T07:35:23;8.80;99.90
20045;DHT22;10183;47.808;9.476;2023-04-07T07:37:50;8.80;99.90
20045;DHT22;10183;47.808;9.476;2023-04-07T07:40:17;9.00;99.90
20045;DHT22;10183;47.808;9.476;2023-04-07T07:42:44;9.10;99.90
20045;DHT22;10183;47.808;9.476;2023-04-07T07:45:11;9.10;99.90
20045;DHT22;10183;47.808;9.476;2023-04-07T07:47:39;9.00;99.90
20045;DHT22;10183;47.808;9.476;2023-04-07T07:50:05;8.80;99.90
20045;DHT22;10183;47.808;9.476;2023-04-07T07:52:32;9.00;99.90
20045;DHT22;10183;47.808;9.476;2023-04-07T07:54:58;8.70;99.90
20045;DHT22;10183;47.808;9.476;2023-04-07T07:57:24;8.80;99.90
20045;DHT22;10183;47.808;9.476;2023-04-07T07:59:51;9.20;99.90
20045;DHT22;10183;47.808;9.476;2023-04-07T08:02:17;9.60;99.90
20045;DHT22;10183;47.808;9.476;2023-04-07T08:04:43;9.90;99.90
20045;DHT22;10183;47.808;9.476;2023-04-07T08:07:09;9.70;99.90
20045;DHT22;10183;47.808;9.476;2023-04-07T08:09:37;9.60;99.90
20045;DHT22;10183;47.808;9.476;2023-04-07T08:12:03;9.80;99.90
20045;DHT22;10183;47.808;9.476;2023-04-07T08:14:29;10.20;99.90
20045;DHT22;10183;47.808;9.476;2023-04-07T08:16:55;10.80;99.90
20045;DHT22;10183;47.808;9.476;2023-04-07T08:19:22;10.90;99.90
20045;DHT22;10183;47.808;9.476;2023-04-07T08:21:48;11.10;99.90
20045;DHT22;10183;47.808;9.476;2023-04-07T08:24:14;11.20;99.90
20045;DHT22;10183;47.808;9.476;2023-04-07T08:26:41;11.20;99.90
20045;DHT22;10183;47.808;9.476;2023-04-07T08:29:07;11.20;99.90
20045;DHT22;10183;47.808;9.476;2023-04-07T08:31:33;11.60;99.90
20045;DHT22;10183;47.808;9.476;2023-04-07T08:33:59;11.80;99.90
20045;DHT22;10183;47.808;9.476;2023-04-07T08:36:26;11.80;99.90
20045;DHT22;10183;47.808;9.476;2023-04-07T08:38:53;11.90;99.90
20045;DHT22;10183;47.808;9.476;2023-04-07T08:41:32;12.00;99.90
20045;DHT22;10183;47.808;9.476;2023-04-07T08:44:00;11.90;99.90
20045;DHT22;10183;47.808;9.476;2023-04-07T08:46:28;11.90;99.90
20045;DHT22;10183;47.808;9.476;2023-04-07T08:48:55;11.60;99.90
20045;DHT22;10183;47.808;9.476;2023-04-07T08:51:30;11.60;99.90
20045;DHT22;10183;47.808;9.476;2023-04-07T08:54:09;12.00;99.90
20045;DHT22;10183;47.808;9.476;2023-04-07T08:56:40;12.00;99.90
20045;DHT22;10183;47.808;9.476;2023-04-07T08:59:09;12.30;99.90
20045;DHT22;10183;47.808;9.476;2023-04-07T09:01:36;12.70;99.90
20045;DHT22;10183;47.808;9.476;2023-04-07T09:04:03;13.00;99.90
20045;DHT22;10183;47.808;9.476;2023-04-07T09:06:30;13.20;99.90
20045;DHT22;10183;47.808;9.476;2023-04-07T09:08:57;13.30;99.90
20045;DHT22;10183;47.808;9.476;2023-04-07T09:11:25;13.50;99.90
20045;DHT22;10183;47.808;9.476;2023-04-07T09:13:52;13.20;99.90
20045;DHT22;10183;47.808;9.476;2023-04-07T09:16:19;12.50;99.90
20045;DHT22;10183;47.808;9.476;2023-04-07T09:18:45;12.00;99.90
20045;DHT22;10183;47.808;9.476;2023-04-07T09:21:47;11.70;99.90
20045;DHT22;10183;47.808;9.476;2023-04-07T09:24:25;11.70;99.90
20045;DHT22;10183;47.808;9.476;2023-04-07T09:27:15;11.30;99.90
20045;DHT22;10183;47.808;9.476;2023-04-07T09:29:44;11.50;99.90
20045;DHT22;10183;47.808;9.476;2023-04-07T09:32:10;11.40;99.90
20045;DHT22;10183;47.808;9.476;2023-04-07T09:34:39;10.60;99.90
20045;DHT22;10183;47.808;9.476;2023-04-07T09:37:06;10.50;99.90
20045;DHT22;10183;47.808;9.476;2023-04-07T09:39:50;10.60;99.90
20045;DHT22;10183;47.808;9.476;2023-04-07T09:42:18;10.80;99.90
20045;DHT22;10183;47.808;9.476;2023-04-07T09:44:44;11.10;99.90
20045;DHT22;10183;47.808;9.476;2023-04-07T09:47:11;11.60;99.90
20045;DHT22;10183;47.808;9.476;2023-04-07T09:49:52;11.60;99.90
20045;DHT22;10183;47.808;9.476;2023-04-07T09:52:21;11.20;99.90
20045;DHT22;10183;47.808;9.476;2023-04-07T09:54:48;11.30;99.90
20045;DHT22;10183;47.808;9.476;2023-04-07T09:57:16;11.10;99.90
20045;DHT22;10183;47.808;9.476;2023-04-07T09:59:43;11.20;99.90
20045;DHT22;10183;47.808;9.476;2023-04-07T10:02:11;10.90;99.90
20045;DHT22;10183;47.808;9.476;2023-04-07T10:04:38;10.90;99.90
20045;DHT22;10183;47.808;9.476;2023-04-07T10:07:06;11.10;99.90
20045;DHT22;10183;47.808;9.476;2023-04-07T10:09:32;11.00;99.90
20045;DHT22;10183;47.808;9.476;2023-04-07T10:11:58;11.00;99.90
20045;DHT22;10183;47.808;9.476;2023-04-07T10:14:30;11.20;99.90
20045;DHT22;10183;47.808;9.476;2023-04-07T10:16:59;11.50;99.90
20045;DHT22;10183;47.808;9.476;2023-04-07T10:19:32;11.80;99.90
20045;DHT22;10183;47.808;9.476;2023-04-07T10:22:02;11.80;99.90
20045;DHT22;10183;47.808;9.476;2023-04-07T10:24:50;12.10;99.90
20045;DHT22;10183;47.808;9.476;2023-04-07T10:27:27;12.10;99.90
20045;DHT22;10183;47.808;9.476;2023-04-07T10:29:54;12.30;99.90
20045;DHT22;10183;47.808;9.476;2023-04-07T10:32:23;12.20;99.90
20045;DHT22;10183;47.808;9.476;2023-04-07T10:37:16;12.00;99.90
20045;DHT22;10183;47.808;9.476;2023-04-07T10:39:45;11.80;99.90
20045;DHT22;10183;47.808;9.476;2023-04-07T10:45:06;12.30;99.90
20045;DHT22;10183;47.808;9.476;2023-04-07T10:47:33;12.60;99.90
20045;DHT22;10183;47.808;9.476;2023-04-07T10:50:25;12.80;99.90
20045;DHT22;10183;47.808;9.476;2023-04-07T10:53:09;12.40;99.90
20045;DHT22;10183;47.808;9.476;2023-04-07T10:55:43;12.10;99.90
20045;DHT22;10183;47.808;9.476;2023-04-07T11:00:39;12.10;99.90
20045;DHT22;10183;47.808;9.476;2023-04-07T11:03:11;12.40;99.90
20045;DHT22;10183;47.808;9.476;2023-04-07T11:05:42;12.80;99.90
20045;DHT22;10183;47.808;9.476;2023-04-07T11:08:08;12.80;99.90
20045;DHT22;10183;47.808;9.476;2023-04-07T11:10:34;13.20;99.90
20045;DHT22;10183;47.808;9.476;2023-04-07T11:13:05;13.30;99.90
20045;DHT22;10183;47.808;9.476;2023-04-07T11:15:34;13.40;99.90
20045;DHT22;10183;47.808;9.476;2023-04-07T11:18:15;13.90;99.90
20045;DHT22;10183;47.808;9.476;2023-04-07T11:20:52;13.30;99.90
20045;DHT22;10183;47.808;9.476;2023-04-07T11:23:21;12.60;99.90
20045;DHT22;10183;47.808;9.476;2023-04-07T11:26:02;12.90;99.90
20045;DHT22;10183;47.808;9.476;2023-04-07T11:28:29;13.20;99.90
20045;DHT22;10183;47.808;9.476;2023-04-07T11:30:57;13.30;99.90
20045;DHT22;10183;47.808;9.476;2023-04-07T11:33:26;13.80;99.90
20045;DHT22;10183;47.808;9.476;2023-04-07T11:36:00;13.60;99.90
20045;DHT22;10183;47.808;9.476;2023-04-07T11:38:33;12.90;99.90
20045;DHT22;10183;47.808;9.476;2023-04-07T11:41:12;12.60;99.90
20045;DHT22;10183;47.808;9.476;2023-04-07T11:43:39;11.60;99.90
20045;DHT22;10183;47.808;9.476;2023-04-07T11:46:13;11.60;99.90
20045;DHT22;10183;47.808;9.476;2023-04-07T11:48:41;12.30;99.90
20045;DHT22;10183;47.808;9.476;2023-04-07T11:51:17;12.80;99.90
20045;DHT22;10183;47.808;9.476;2023-04-07T11:53:44;13.20;99.90
20045;DHT22;10183;47.808;9.476;2023-04-07T11:56:15;13.00;99.90
20045;DHT22;10183;47.808;9.476;2023-04-07T11:58:52;12.50;99.90
20045;DHT22;10183;47.808;9.476;2023-04-07T12:01:19;11.90;99.90
20045;DHT22;10183;47.808;9.476;2023-04-07T12:04:02;12.50;99.90
20045;DHT22;10183;47.808;9.476;2023-04-07T12:06:35;13.00;99.90
20045;DHT22;10183;47.808;9.476;2023-04-07T12:09:04;12.70;99.90
20045;DHT22;10183;47.808;9.476;2023-04-07T12:11:31;12.70;99.90
20045;DHT22;10183;47.808;9.476;2023-04-07T12:13:58;12.80;99.90
20045;DHT22;10183;47.808;9.476;2023-04-07T12:16:24;12.40;99.90
20045;DHT22;10183;47.808;9.476;2023-04-07T12:18:51;11.20;99.90
20045;DHT22;10183;47.808;9.476;2023-04-07T12:21:18;10.60;99.90
20045;DHT22;10183;47.808;9.476;2023-04-07T12:23:46;10.50;99.90
20045;DHT22;10183;47.808;9.476;2023-04-07T12:26:12;10.30;99.90
20045;DHT22;10183;47.808;9.476;2023-04-07T12:28:39;10.10;99.90
20045;DHT22;10183;47.808;9.476;2023-04-07T12:31:05;10.10;99.90
20045;DHT22;10183;47.808;9.476;2023-04-07T12:33:31;10.30;99.90
20045;DHT22;10183;47.808;9.476;2023-04-07T12:35:57;10.50;99.90
20045;DHT22;10183;47.808;9.476;2023-04-07T12:38:24;10.80;99.90
20045;DHT22;10183;47.808;9.476;2023-04-07T12:40:50;10.70;99.90
20045;DHT22;10183;47.808;9.476;2023-04-07T12:43:16;10.30;99.90
20045;DHT22;10183;47.808;9.476;2023-04-07T12:45:43;10.20;99.90
20045;DHT22;10183;47.808;9.476;2023-04-07T12:48:09;10.50;99.90
20045;DHT22;10183;47.808;9.476;2023-04-07T12:50:35;11.30;99.90
20045;DHT22;10183;47.808;9.476;2023-04-07T12:53:02;11.30;99.90
20045;DHT22;10183;47.808;9.476;2023-04-07T12:55:31;11.10;99.90
20045;DHT22;10183;47.808;9.476;2023-04-07T12:57:59;10.70;99.90
20045;DHT22;10183;47.808;9.476;2023-04-07T13:00:25;11.00;99.90
20045;DHT22;10183;47.808;9.476;2023-04-07T13:02:51;11.20;99.90
20045;DHT22;10183;47.808;9.476;2023-04-07T13:05:17;11.30;99.90
20045;DHT22;10183;47.808;9.476;2023-04-07T13:07:44;11.70;99.90
20045;DHT22;10183;47.808;9.476;2023-04-07T13:10:10;12.10;99.90
20045;DHT22;10183;47.808;9.476;2023-04-07T13:12:36;11.60;99.90
20045;DHT22;10183;47.808;9.476;2023-04-07T13:15:05;11.70;99.90
20045;DHT22;10183;47.808;9.476;2023-04-07T13:17:31;12.40;99.90
20045;DHT22;10183;47.808;9.476;2023-04-07T13:19:58;12.70;99.90
20045;DHT22;10183;47.808;9.476;2023-04-07T13:22:24;12.00;99.90
20045;DHT22;10183;47.808;9.476;2023-04-07T13:24:50;12.70;99.90
20045;DHT22;10183;47.808;9.476;2023-04-07T13:27:16;13.40;99.90
20045;DHT22;10183;47.808;9.476;2023-04-07T13:29:43;12.40;99.90
20045;DHT22;10183;47.808;9.476;2023-04-07T13:32:10;12.50;99.90
20045;DHT22;10183;47.808;9.476;2023-04-07T13:34:40;12.40;99.90
20045;DHT22;10183;47.808;9.476;2023-04-07T13:37:07;11.30;99.90
20045;DHT22;10183;47.808;9.476;2023-04-07T13:39:33;11.00;99.90
20045;DHT22;10183;47.808;9.476;2023-04-07T13:41:59;10.80;99.90
20045;DHT22;10183;47.808;9.476;2023-04-07T13:44:26;10.20;99.90
20045;DHT22;10183;47.808;9.476;2023-04-07T13:46:53;10.40;99.90
20045;DHT22;10183;47.808;9.476;2023-04-07T13:49:20;10.60;99.90
20045;DHT22;10183;47.808;9.476;2023-04-07T13:51:47;10.30;99.90
20045;DHT22;10183;47.808;9.476;2023-04-07T13:54:14;9.80;99.90
20045;DHT22;10183;47.808;9.476;2023-04-07T13:56:41;9.20;99.90
20045;DHT22;10183;47.808;9.476;2023-04-07T13:59:08;9.20;99.90
20045;DHT22;10183;47.808;9.476;2023-04-07T14:01:34;9.30;99.90
20045;DHT22;10183;47.808;9.476;2023-04-07T14:04:01;9.70;99.90
20045;DHT22;10183;47.808;9.476;2023-04-07T14:06:28;10.00;99.90
20045;DHT22;10183;47.808;9.476;2023-04-07T14:08:54;9.80;99.90
20045;DHT22;10183;47.808;9.476;2023-04-07T14:11:21;9.50;99.90
20045;DHT22;10183;47.808;9.476;2023-04-07T14:13:48;9.50;99.90
20045;DHT22;10183;47.808;9.476;2023-04-07T14:16:15;9.70;99.90
20045;DHT22;10183;47.808;9.476;2023-04-07T14:18:41;9.70;99.90
20045;DHT22;10183;47.808;9.476;2023-04-07T14:21:08;9.50;99.90
20045;DHT22;10183;47.808;9.476;2023-04-07T14:23:34;9.50;99.90
20045;DHT22;10183;47.808;9.476;2023-04-07T14:26:00;9.70;99.90
20045;DHT22;10183;47.808;9.476;2023-04-07T14:28:27;9.90;99.90
20045;DHT22;10183;47.808;9.476;2023-04-07T14:30:54;10.50;99.90
20045;DHT22;10183;47.808;9.476;2023-04-07T14:33:24;10.90;99.90
20045;DHT22;10183;47.808;9.476;2023-04-07T14:35:51;11.00;99.90
20045;DHT22;10183;47.808;9.476;2023-04-07T14:38:17;11.00;99.90
20045;DHT22;10183;47.808;9.476;2023-04-07T14:40:44;10.70;99.90
20045;DHT22;10183;47.808;9.476;2023-04-07T14:43:10;10.60;99.90
20045;DHT22;10183;47.808;9.476;2023-04-07T14:45:37;10.40;99.90
20045;DHT22;10183;47.808;9.476;2023-04-07T14:48:03;9.80;99.90
20045;DHT22;10183;47.808;9.476;2023-04-07T14:50:34;9.60;99.90
20045;DHT22;10183;47.808;9.476;2023-04-07T14:53:00;9.40;99.90
20045;DHT22;10183;47.808;9.476;2023-04-07T14:55:27;9.40;99.90
20045;DHT22;10183;47.808;9.476;2023-04-07T14:57:54;9.30;99.90
20045;DHT22;10183;47.808;9.476;2023-04-07T15:00:20;9.30;99.90
20045;DHT22;10183;47.808;9.476;2023-04-07T15:02:46;9.40;99.90
20045;DHT22;10183;47.808;9.476;2023-04-07T15:05:12;9.30;99.90
20045;DHT22;10183;47.808;9.476;2023-04-07T15:07:38;9.30;99.90
20045;DHT22;10183;47.808;9.476;2023-04-07T15:10:05;9.30;99.90
20045;DHT22;10183;47.808;9.476;2023-04-07T15:12:31;9.30;99.90
20045;DHT22;10183;47.808;9.476;2023-04-07T15:14:58;9.30;99.90
20045;DHT22;10183;47.808;9.476;2023-04-07T15:17:24;9.30;99.90
20045;DHT22;10183;47.808;9.476;2023-04-07T15:19:50;9.20;99.90
20045;DHT22;10183;47.808;9.476;2023-04-07T15:22:17;9.00;99.90
20045;DHT22;10183;47.808;9.476;2023-04-07T15:24:43;8.90;99.90
20045;DHT22;10183;47.808;9.476;2023-04-07T15:27:09;9.00;99.90
20045;DHT22;10183;47.808;9.476;2023-04-07T15:29:36;9.10;99.90
20045;DHT22;10183;47.808;9.476;2023-04-07T15:32:03;8.90;99.90
20045;DHT22;10183;47.808;9.476;2023-04-07T15:34:30;8.90;99.90
20045;DHT22;10183;47.808;9.476;2023-04-07T15:36:56;8.70;99.90
20045;DHT22;10183;47.808;9.476;2023-04-07T15:39:22;8.20;99.90
20045;DHT22;10183;47.808;9.476;2023-04-07T15:41:49;8.00;99.90
20045;DHT22;10183;47.808;9.476;2023-04-07T15:44:17;7.80;99.90
20045;DHT22;10183;47.808;9.476;2023-04-07T15:46:43;7.90;99.90
20045;DHT22;10183;47.808;9.476;2023-04-07T15:49:10;7.60;99.90
20045;DHT22;10183;47.808;9.476;2023-04-07T15:51:36;7.60;99.90
20045;DHT22;10183;47.808;9.476;2023-04-07T15:54:02;7.60;99.90
20045;DHT22;10183;47.808;9.476;2023-04-07T15:56:29;7.60;99.90
20045;DHT22;10183;47.808;9.476;2023-04-07T15:58:55;7.60;99.90